FDX745 KMEM-KEWR
Flight info
| Callsign | FDX745 |
|---|---|
| Flight time | 2h 0m |
| Altitude | 35000 |
| Route | GOETZ7 DIYAB HITMN Q34 GVE PHLBO4 |
| Aircraft | B77L/H-SDE1E2E3FGHIJ2J3J4J5M1RWXY/LB1D1 |
Departure
| Time | 2026-04-21 17:55 |
|---|---|
| Airport | Memphis International Airport (KMEM) |
Arrival
| Time | 2026-04-21 19:55 |
|---|---|
| Airport | Newark Liberty International Airport (KEWR) |
| Time | Latitude | Longitude | Altitude | Speed | Heading |
|---|---|---|---|---|---|
| 2026-04-21 17:10 | 35.06018 | -89.97111 | 335 ft | 0 kts | 1° |
| 2026-04-21 17:35 | 35.06018 | -89.97112 | 335 ft | 0 kts | 1° |
| 2026-04-21 17:35 | 35.06018 | -89.97111 | 335 ft | 0 kts | 1° |
| 2026-04-21 17:36 | 35.06018 | -89.97112 | 335 ft | 0 kts | 1° |
| 2026-04-21 17:42 | 35.06011 | -89.97112 | 335 ft | 4 kts | 1° |
| 2026-04-21 17:42 | 35.05987 | -89.97112 | 331 ft | 2 kts | 1° |
| 2026-04-21 17:42 | 35.05963 | -89.97111 | 329 ft | 4 kts | 345° |
| 2026-04-21 17:42 | 35.05942 | -89.97099 | 329 ft | 4 kts | 313° |
| 2026-04-21 17:43 | 35.05931 | -89.97077 | 329 ft | 4 kts | 275° |
| 2026-04-21 17:43 | 35.05930 | -89.97046 | 329 ft | 4 kts | 272° |
| 2026-04-21 17:43 | 35.05929 | -89.97030 | 329 ft | 2 kts | 272° |
| 2026-04-21 17:47 | 35.05930 | -89.97068 | 329 ft | 8 kts | 272° |
| 2026-04-21 17:48 | 35.05931 | -89.97115 | 331 ft | 8 kts | 272° |
| 2026-04-21 17:48 | 35.05934 | -89.97208 | 333 ft | 8 kts | 272° |
| 2026-04-21 17:48 | 35.05936 | -89.97278 | 331 ft | 8 kts | 272° |
| 2026-04-21 17:48 | 35.05938 | -89.97347 | 331 ft | 8 kts | 272° |
| 2026-04-21 17:49 | 35.05940 | -89.97417 | 334 ft | 8 kts | 272° |
| 2026-04-21 17:49 | 35.05926 | -89.97483 | 333 ft | 8 kts | 226° |
| 2026-04-21 17:49 | 35.05871 | -89.97496 | 332 ft | 8 kts | 168° |
| 2026-04-21 17:49 | 35.05812 | -89.97486 | 333 ft | 10 kts | 176° |
| 2026-04-21 17:50 | 35.05728 | -89.97487 | 332 ft | 13 kts | 182° |
| 2026-04-21 17:50 | 35.05642 | -89.97488 | 332 ft | 12 kts | 179° |
| 2026-04-21 17:50 | 35.05558 | -89.97487 | 329 ft | 12 kts | 179° |
| 2026-04-21 17:50 | 35.05475 | -89.97485 | 329 ft | 12 kts | 179° |
| 2026-04-21 17:51 | 35.05391 | -89.97483 | 330 ft | 12 kts | 179° |
| 2026-04-21 17:51 | 35.05308 | -89.97481 | 328 ft | 12 kts | 179° |
| 2026-04-21 17:51 | 35.05224 | -89.97480 | 329 ft | 12 kts | 179° |
| 2026-04-21 17:51 | 35.05141 | -89.97478 | 330 ft | 12 kts | 179° |
| 2026-04-21 17:52 | 35.05057 | -89.97475 | 329 ft | 12 kts | 179° |
| 2026-04-21 17:52 | 35.04974 | -89.97473 | 329 ft | 12 kts | 179° |
| 2026-04-21 17:52 | 35.04906 | -89.97470 | 329 ft | 8 kts | 173° |
| 2026-04-21 17:52 | 35.04875 | -89.97432 | 327 ft | 5 kts | 107° |
| 2026-04-21 17:53 | 35.04870 | -89.97389 | 329 ft | 5 kts | 93° |
| 2026-04-21 17:53 | 35.04870 | -89.97345 | 330 ft | 5 kts | 90° |
| 2026-04-21 17:53 | 35.04857 | -89.97305 | 329 ft | 5 kts | 147° |
| 2026-04-21 17:53 | 35.04823 | -89.97296 | 331 ft | 1 kts | 175° |
| 2026-04-21 17:54 | 35.04800 | -89.97295 | 332 ft | 14 kts | 178° |
| 2026-04-21 17:54 | 35.04481 | -89.97288 | 331 ft | 82 kts | 179° |
| 2026-04-21 17:54 | 35.03689 | -89.97271 | 332 ft | 143 kts | 179° |
| 2026-04-21 17:54 | 35.02550 | -89.97258 | 528 ft | 171 kts | 180° |
| 2026-04-21 17:55 | 35.01340 | -89.97221 | 1131 ft | 178 kts | 178° |
| 2026-04-21 17:55 | 35.00114 | -89.97154 | 1779 ft | 176 kts | 179° |
| 2026-04-21 17:55 | 34.98867 | -89.97054 | 2311 ft | 185 kts | 175° |
| 2026-04-21 17:55 | 34.97564 | -89.96662 | 2717 ft | 203 kts | 160° |
| 2026-04-21 17:56 | 34.96216 | -89.95942 | 3178 ft | 222 kts | 158° |
| 2026-04-21 17:56 | 34.94752 | -89.95107 | 3722 ft | 242 kts | 152° |
| 2026-04-21 17:56 | 34.93472 | -89.93686 | 4455 ft | 258 kts | 128° |
| 2026-04-21 17:56 | 34.92759 | -89.91604 | 5165 ft | 278 kts | 102° |
| 2026-04-21 17:57 | 34.92687 | -89.89230 | 5988 ft | 283 kts | 93° |
| 2026-04-21 17:57 | 34.92659 | -89.86814 | 6801 ft | 286 kts | 95° |
| 2026-04-21 17:57 | 34.92666 | -89.84382 | 7504 ft | 291 kts | 83° |
| 2026-04-21 17:57 | 34.93433 | -89.82075 | 8160 ft | 297 kts | 60° |
| 2026-04-21 17:58 | 34.94530 | -89.79917 | 8891 ft | 301 kts | 60° |
| 2026-04-21 17:58 | 34.95604 | -89.77709 | 9739 ft | 303 kts | 60° |
| 2026-04-21 17:58 | 34.96674 | -89.75490 | 10511 ft | 308 kts | 61° |
| 2026-04-21 17:58 | 34.97789 | -89.73154 | 10772 ft | 331 kts | 61° |
| 2026-04-21 17:59 | 34.98963 | -89.70661 | 10960 ft | 357 kts | 61° |
| 2026-04-21 17:59 | 35.00233 | -89.67937 | 11191 ft | 381 kts | 61° |
| 2026-04-21 17:59 | 35.01564 | -89.65083 | 11778 ft | 393 kts | 61° |
| 2026-04-21 17:59 | 35.02938 | -89.62162 | 12569 ft | 400 kts | 60° |
| 2026-04-21 18:00 | 35.04334 | -89.59203 | 13516 ft | 404 kts | 60° |
| 2026-04-21 18:00 | 35.05738 | -89.56215 | 14406 ft | 408 kts | 60° |
| 2026-04-21 18:00 | 35.07159 | -89.53188 | 15145 ft | 414 kts | 60° |
| 2026-04-21 18:00 | 35.08596 | -89.50116 | 15897 ft | 419 kts | 60° |
| 2026-04-21 18:01 | 35.10046 | -89.47006 | 16678 ft | 424 kts | 60° |
| 2026-04-21 18:01 | 35.11514 | -89.43861 | 17448 ft | 429 kts | 60° |
| 2026-04-21 18:01 | 35.13000 | -89.40682 | 18203 ft | 433 kts | 60° |
| 2026-04-21 18:01 | 35.14504 | -89.37465 | 18888 ft | 439 kts | 60° |
| 2026-04-21 18:02 | 35.15506 | -89.35307 | 19315 ft | 442 kts | 60° |
| 2026-04-21 18:02 | 35.17554 | -89.30901 | 20168 ft | 448 kts | 60° |
| 2026-04-21 18:02 | 35.19104 | -89.27573 | 20808 ft | 453 kts | 60° |
| 2026-04-21 18:02 | 35.20664 | -89.24213 | 21445 ft | 457 kts | 59° |
| 2026-04-21 18:03 | 35.22133 | -89.20749 | 21994 ft | 462 kts | 67° |
| 2026-04-21 18:03 | 35.23164 | -89.17002 | 22524 ft | 468 kts | 73° |
| 2026-04-21 18:03 | 35.24049 | -89.13144 | 23111 ft | 473 kts | 74° |
| 2026-04-21 18:03 | 35.24958 | -89.09266 | 23699 ft | 477 kts | 70° |
| 2026-04-21 18:04 | 35.26176 | -89.05479 | 24199 ft | 481 kts | 64° |
| 2026-04-21 18:04 | 35.27612 | -89.01767 | 24698 ft | 484 kts | 62° |
| 2026-04-21 18:04 | 35.29133 | -88.98071 | 25181 ft | 488 kts | 61° |
| 2026-04-21 18:04 | 35.30152 | -88.95609 | 25511 ft | 491 kts | 62° |
| 2026-04-21 18:05 | 35.32200 | -88.90573 | 26146 ft | 497 kts | 62° |
| 2026-04-21 18:05 | 35.33204 | -88.88041 | 26441 ft | 500 kts | 63° |
| 2026-04-21 18:05 | 35.34702 | -88.84182 | 26893 ft | 505 kts | 63° |
| 2026-04-21 18:05 | 35.36196 | -88.80267 | 27335 ft | 509 kts | 63° |
| 2026-04-21 18:06 | 35.37691 | -88.76308 | 27798 ft | 513 kts | 63° |
| 2026-04-21 18:06 | 35.39190 | -88.72322 | 28240 ft | 517 kts | 63° |
| 2026-04-21 18:06 | 35.40702 | -88.68300 | 28660 ft | 521 kts | 63° |
| 2026-04-21 18:06 | 35.42224 | -88.64249 | 29052 ft | 525 kts | 63° |
| 2026-04-21 18:07 | 35.43757 | -88.60165 | 29450 ft | 529 kts | 63° |
| 2026-04-21 18:07 | 35.45302 | -88.56050 | 29854 ft | 532 kts | 63° |
| 2026-04-21 18:07 | 35.46854 | -88.51911 | 30247 ft | 535 kts | 63° |
| 2026-04-21 18:07 | 35.48410 | -88.47761 | 30675 ft | 536 kts | 63° |
| 2026-04-21 18:08 | 35.49963 | -88.43615 | 31156 ft | 534 kts | 63° |
| 2026-04-21 18:08 | 35.51507 | -88.39480 | 31635 ft | 533 kts | 62° |
| 2026-04-21 18:08 | 35.53050 | -88.35348 | 32073 ft | 532 kts | 62° |
| 2026-04-21 18:08 | 35.54592 | -88.31218 | 32466 ft | 532 kts | 62° |
| 2026-04-21 18:09 | 35.56133 | -88.27085 | 32872 ft | 532 kts | 62° |
| 2026-04-21 18:09 | 35.57671 | -88.22951 | 33289 ft | 532 kts | 62° |
| 2026-04-21 18:09 | 35.59206 | -88.18820 | 33713 ft | 531 kts | 62° |
| 2026-04-21 18:09 | 35.60736 | -88.14696 | 34105 ft | 531 kts | 61° |
| 2026-04-21 18:10 | 35.62269 | -88.10563 | 34451 ft | 531 kts | 61° |
| 2026-04-21 18:10 | 35.63797 | -88.06434 | 34774 ft | 530 kts | 61° |
| 2026-04-21 18:10 | 35.65319 | -88.02313 | 35131 ft | 529 kts | 61° |
| 2026-04-21 18:10 | 35.66839 | -87.98192 | 35319 ft | 531 kts | 61° |
| 2026-04-21 18:11 | 35.69890 | -87.89907 | 35293 ft | 530 kts | 62° |
| 2026-04-21 18:11 | 35.72889 | -87.81741 | 35286 ft | 525 kts | 61° |
| 2026-04-21 18:12 | 35.75891 | -87.73553 | 35292 ft | 524 kts | 61° |
| 2026-04-21 18:12 | 35.78881 | -87.65378 | 35288 ft | 523 kts | 61° |
| 2026-04-21 18:13 | 35.81859 | -87.57201 | 35293 ft | 523 kts | 61° |
| 2026-04-21 18:13 | 35.84841 | -87.49001 | 35294 ft | 525 kts | 62° |
| 2026-04-21 18:14 | 35.89318 | -87.36663 | 35302 ft | 527 kts | 62° |
| 2026-04-21 18:15 | 35.92301 | -87.28396 | 35301 ft | 527 kts | 62° |
| 2026-04-21 18:15 | 35.95278 | -87.20132 | 35282 ft | 527 kts | 62° |
| 2026-04-21 18:16 | 35.98246 | -87.11877 | 35299 ft | 526 kts | 62° |
| 2026-04-21 18:16 | 36.01204 | -87.03623 | 35279 ft | 525 kts | 62° |
| 2026-04-21 18:17 | 36.04146 | -86.95377 | 35283 ft | 524 kts | 62° |
| 2026-04-21 18:17 | 36.07079 | -86.87153 | 35276 ft | 522 kts | 62° |
| 2026-04-21 18:18 | 36.09996 | -86.78953 | 35300 ft | 520 kts | 62° |
| 2026-04-21 18:18 | 36.12896 | -86.70773 | 35296 ft | 518 kts | 62° |
| 2026-04-21 18:19 | 36.15705 | -86.62579 | 35297 ft | 518 kts | 64° |
| 2026-04-21 18:19 | 36.18361 | -86.54304 | 35304 ft | 517 kts | 65° |
| 2026-04-21 18:20 | 36.20996 | -86.46026 | 35313 ft | 516 kts | 65° |
| 2026-04-21 18:20 | 36.23650 | -86.37769 | 35319 ft | 517 kts | 65° |
| 2026-04-21 18:21 | 36.26309 | -86.29505 | 35304 ft | 516 kts | 65° |
| 2026-04-21 18:21 | 36.28962 | -86.21250 | 35309 ft | 515 kts | 65° |
| 2026-04-21 18:22 | 36.31588 | -86.13052 | 35309 ft | 514 kts | 65° |
| 2026-04-21 18:22 | 36.34236 | -86.04753 | 35308 ft | 514 kts | 65° |
| 2026-04-21 18:23 | 36.36839 | -85.96569 | 35312 ft | 513 kts | 65° |
| 2026-04-21 18:23 | 36.39452 | -85.88333 | 35305 ft | 513 kts | 65° |
| 2026-04-21 18:24 | 36.42058 | -85.80100 | 35309 ft | 512 kts | 65° |
| 2026-04-21 18:24 | 36.44653 | -85.71864 | 35310 ft | 511 kts | 65° |
| 2026-04-21 18:25 | 36.47246 | -85.63632 | 35308 ft | 511 kts | 65° |
| 2026-04-21 18:25 | 36.49827 | -85.55390 | 35311 ft | 512 kts | 66° |
| 2026-04-21 18:26 | 36.52410 | -85.47131 | 35313 ft | 513 kts | 65° |
| 2026-04-21 18:26 | 36.54993 | -85.38858 | 35310 ft | 514 kts | 66° |
| 2026-04-21 18:27 | 36.57569 | -85.30570 | 35306 ft | 513 kts | 66° |
| 2026-04-21 18:27 | 36.60140 | -85.22282 | 35317 ft | 513 kts | 66° |
| 2026-04-21 18:28 | 36.62706 | -85.13988 | 35320 ft | 515 kts | 66° |
| 2026-04-21 18:28 | 36.65271 | -85.05647 | 35317 ft | 516 kts | 66° |
| 2026-04-21 18:29 | 36.67836 | -84.97307 | 35310 ft | 515 kts | 66° |
| 2026-04-21 18:29 | 36.70390 | -84.88978 | 35316 ft | 514 kts | 65° |
| 2026-04-21 18:30 | 36.72928 | -84.80660 | 35321 ft | 514 kts | 65° |
| 2026-04-21 18:30 | 36.75465 | -84.72334 | 35306 ft | 513 kts | 65° |
| 2026-04-21 18:31 | 36.77986 | -84.64017 | 35325 ft | 513 kts | 65° |
| 2026-04-21 18:31 | 36.80510 | -84.55678 | 35314 ft | 514 kts | 65° |
| 2026-04-21 18:32 | 36.83039 | -84.47324 | 35312 ft | 515 kts | 65° |
| 2026-04-21 18:32 | 36.85567 | -84.38951 | 35303 ft | 516 kts | 65° |
| 2026-04-21 18:33 | 36.88091 | -84.30559 | 35305 ft | 517 kts | 65° |
| 2026-04-21 18:33 | 36.90611 | -84.22146 | 35302 ft | 517 kts | 65° |
| 2026-04-21 18:34 | 36.93132 | -84.13721 | 35299 ft | 518 kts | 65° |
| 2026-04-21 18:34 | 36.95650 | -84.05278 | 35303 ft | 518 kts | 65° |
| 2026-04-21 18:35 | 36.97730 | -83.98266 | 35303 ft | 517 kts | 65° |
| 2026-04-21 18:35 | 37.00622 | -83.88458 | 35299 ft | 517 kts | 65° |
| 2026-04-21 18:36 | 37.03101 | -83.80016 | 35303 ft | 517 kts | 65° |
| 2026-04-21 18:36 | 37.05574 | -83.71582 | 35296 ft | 516 kts | 65° |
| 2026-04-21 18:37 | 37.08042 | -83.63137 | 35297 ft | 516 kts | 65° |
| 2026-04-21 18:37 | 37.10505 | -83.54688 | 35298 ft | 517 kts | 65° |
| 2026-04-21 18:38 | 37.12966 | -83.46221 | 35278 ft | 517 kts | 65° |
| 2026-04-21 18:38 | 37.15416 | -83.37753 | 35297 ft | 517 kts | 65° |
| 2026-04-21 18:39 | 37.17865 | -83.29269 | 35287 ft | 517 kts | 65° |
| 2026-04-21 18:39 | 37.20310 | -83.20777 | 35288 ft | 518 kts | 65° |
| 2026-04-21 18:40 | 37.22748 | -83.12279 | 35283 ft | 518 kts | 65° |
| 2026-04-21 18:40 | 37.24770 | -83.05211 | 35296 ft | 518 kts | 65° |
| 2026-04-21 18:41 | 37.27615 | -82.95246 | 35291 ft | 519 kts | 65° |
| 2026-04-21 18:41 | 37.30043 | -82.86711 | 35280 ft | 519 kts | 65° |
| 2026-04-21 18:42 | 37.32467 | -82.78167 | 35286 ft | 519 kts | 65° |
| 2026-04-21 18:42 | 37.34867 | -82.69673 | 35276 ft | 519 kts | 65° |
| 2026-04-21 18:43 | 37.37280 | -82.61112 | 35286 ft | 519 kts | 65° |
| 2026-04-21 18:43 | 37.39687 | -82.52546 | 35276 ft | 520 kts | 65° |
| 2026-04-21 18:44 | 37.42086 | -82.43968 | 35274 ft | 519 kts | 65° |
| 2026-04-21 18:44 | 37.44477 | -82.35404 | 35286 ft | 518 kts | 65° |
| 2026-04-21 18:45 | 37.46859 | -82.26846 | 35269 ft | 518 kts | 65° |
| 2026-04-21 18:45 | 37.49232 | -82.18290 | 35279 ft | 517 kts | 65° |
| 2026-04-21 18:46 | 37.51599 | -82.09734 | 35272 ft | 517 kts | 65° |
| 2026-04-21 18:46 | 37.53966 | -82.01176 | 35289 ft | 517 kts | 65° |
| 2026-04-21 18:47 | 37.56327 | -81.92620 | 35278 ft | 517 kts | 65° |
| 2026-04-21 18:47 | 37.58682 | -81.84055 | 35274 ft | 517 kts | 65° |
| 2026-04-21 18:48 | 37.61027 | -81.75479 | 35271 ft | 517 kts | 65° |
| 2026-04-21 18:48 | 37.63351 | -81.66917 | 35293 ft | 516 kts | 65° |
| 2026-04-21 18:49 | 37.65670 | -81.58345 | 35273 ft | 516 kts | 65° |
| 2026-04-21 18:49 | 37.67591 | -81.51223 | 35282 ft | 516 kts | 65° |
| 2026-04-21 18:50 | 37.70290 | -81.41186 | 35285 ft | 516 kts | 65° |
| 2026-04-21 18:50 | 37.72589 | -81.32603 | 35292 ft | 516 kts | 65° |
| 2026-04-21 18:51 | 37.74887 | -81.24009 | 35303 ft | 516 kts | 65° |
| 2026-04-21 18:51 | 37.77143 | -81.15392 | 35295 ft | 519 kts | 69° |
| 2026-04-21 18:52 | 37.78528 | -81.06380 | 35290 ft | 527 kts | 80° |
| 2026-04-21 18:52 | 37.79011 | -80.98694 | 35304 ft | 527 kts | 81° |
| 2026-04-21 18:53 | 37.79634 | -80.87956 | 35306 ft | 527 kts | 81° |
| 2026-04-21 18:53 | 37.80224 | -80.78729 | 35313 ft | 526 kts | 81° |
| 2026-04-21 18:54 | 37.80731 | -80.71002 | 35298 ft | 526 kts | 80° |
| 2026-04-21 18:54 | 37.81323 | -80.61849 | 35290 ft | 525 kts | 80° |
| 2026-04-21 18:55 | 37.81910 | -80.52641 | 35297 ft | 525 kts | 81° |
| 2026-04-21 18:55 | 37.82487 | -80.43438 | 35288 ft | 525 kts | 81° |
| 2026-04-21 18:56 | 37.83065 | -80.34222 | 35287 ft | 526 kts | 81° |
| 2026-04-21 18:56 | 37.83640 | -80.25002 | 35290 ft | 526 kts | 81° |
| 2026-04-21 18:57 | 37.84208 | -80.15779 | 35303 ft | 526 kts | 81° |
| 2026-04-21 18:57 | 37.84767 | -80.06559 | 35311 ft | 525 kts | 81° |
| 2026-04-21 18:58 | 37.85318 | -79.97345 | 35307 ft | 525 kts | 81° |
| 2026-04-21 18:58 | 37.85862 | -79.88138 | 35303 ft | 525 kts | 81° |
| 2026-04-21 18:59 | 37.86399 | -79.78935 | 35298 ft | 523 kts | 81° |
| 2026-04-21 18:59 | 37.86889 | -79.69758 | 35307 ft | 523 kts | 82° |
| 2026-04-21 18:59 | 37.87046 | -79.65151 | 34954 ft | 523 kts | 83° |
| 2026-04-21 19:00 | 37.87173 | -79.60556 | 34871 ft | 523 kts | 83° |
| 2026-04-21 19:00 | 37.87429 | -79.51386 | 34872 ft | 521 kts | 83° |
| 2026-04-21 19:01 | 37.87715 | -79.42231 | 34854 ft | 520 kts | 83° |
| 2026-04-21 19:01 | 37.88022 | -79.33146 | 34917 ft | 519 kts | 81° |
| 2026-04-21 19:02 | 37.88950 | -79.24137 | 35036 ft | 515 kts | 76° |
| 2026-04-21 19:02 | 37.90066 | -79.15186 | 35171 ft | 515 kts | 76° |
| 2026-04-21 19:03 | 37.91157 | -79.06211 | 35285 ft | 516 kts | 77° |
| 2026-04-21 19:03 | 37.92209 | -78.97227 | 35343 ft | 515 kts | 77° |
| 2026-04-21 19:04 | 37.93238 | -78.88260 | 35331 ft | 514 kts | 77° |
| 2026-04-21 19:04 | 37.94261 | -78.79316 | 35335 ft | 512 kts | 77° |
| 2026-04-21 19:05 | 37.95281 | -78.70379 | 35339 ft | 512 kts | 77° |
| 2026-04-21 19:05 | 37.96291 | -78.61457 | 35320 ft | 511 kts | 77° |
| 2026-04-21 19:06 | 37.97292 | -78.52546 | 35325 ft | 510 kts | 77° |
| 2026-04-21 19:06 | 37.98283 | -78.43655 | 35317 ft | 510 kts | 77° |
| 2026-04-21 19:07 | 37.99268 | -78.34760 | 35316 ft | 509 kts | 77° |
| 2026-04-21 19:07 | 38.00246 | -78.25875 | 35329 ft | 508 kts | 78° |
| 2026-04-21 19:08 | 38.01251 | -78.17086 | 35319 ft | 504 kts | 73° |
| 2026-04-21 19:08 | 38.02355 | -78.12933 | 35323 ft | 491 kts | 56° |
| 2026-04-21 19:08 | 38.04139 | -78.09317 | 35342 ft | 481 kts | 51° |
| 2026-04-21 19:09 | 38.07841 | -78.02213 | 35346 ft | 484 kts | 51° |
| 2026-04-21 19:09 | 38.11499 | -77.95006 | 35342 ft | 487 kts | 52° |
| 2026-04-21 19:10 | 38.15119 | -77.87718 | 35344 ft | 489 kts | 52° |
| 2026-04-21 19:10 | 38.18737 | -77.80388 | 35338 ft | 490 kts | 52° |
| 2026-04-21 19:11 | 38.22353 | -77.73047 | 35341 ft | 490 kts | 52° |
| 2026-04-21 19:11 | 38.25959 | -77.65714 | 35335 ft | 489 kts | 52° |
| 2026-04-21 19:12 | 38.29554 | -77.58389 | 35331 ft | 487 kts | 52° |
| 2026-04-21 19:12 | 38.33138 | -77.51073 | 35315 ft | 486 kts | 52° |
| 2026-04-21 19:13 | 38.36705 | -77.43771 | 35319 ft | 485 kts | 52° |
| 2026-04-21 19:13 | 38.40256 | -77.36485 | 35324 ft | 483 kts | 52° |
| 2026-04-21 19:14 | 38.43798 | -77.29210 | 35339 ft | 482 kts | 52° |
| 2026-04-21 19:14 | 38.47330 | -77.21934 | 35345 ft | 482 kts | 52° |
| 2026-04-21 19:15 | 38.50860 | -77.14648 | 35350 ft | 483 kts | 52° |
| 2026-04-21 19:15 | 38.53086 | -77.10042 | 35350 ft | 483 kts | 52° |
| 2026-04-21 19:16 | 38.56613 | -77.02733 | 35360 ft | 483 kts | 52° |
| 2026-04-21 19:16 | 38.60135 | -76.95418 | 35351 ft | 483 kts | 52° |
| 2026-04-21 19:17 | 38.65408 | -76.84431 | 35345 ft | 483 kts | 52° |
| 2026-04-21 19:17 | 38.68918 | -76.77099 | 35337 ft | 483 kts | 52° |
| 2026-04-21 19:18 | 38.72420 | -76.69766 | 35340 ft | 482 kts | 52° |
| 2026-04-21 19:18 | 38.76300 | -76.62914 | 35328 ft | 463 kts | 33° |
| 2026-04-21 19:19 | 38.81414 | -76.58047 | 35354 ft | 458 kts | 30° |
| 2026-04-21 19:19 | 38.86569 | -76.53199 | 35360 ft | 461 kts | 31° |
| 2026-04-21 19:20 | 38.91689 | -76.48216 | 35370 ft | 462 kts | 31° |
| 2026-04-21 19:20 | 38.96765 | -76.43217 | 35361 ft | 463 kts | 31° |
| 2026-04-21 19:21 | 39.01906 | -76.38159 | 34783 ft | 473 kts | 31° |
| 2026-04-21 19:21 | 39.04489 | -76.35498 | 34121 ft | 476 kts | 34° |
| 2026-04-21 19:21 | 39.06973 | -76.32669 | 33140 ft | 478 kts | 36° |
| 2026-04-21 19:22 | 39.09398 | -76.29772 | 32230 ft | 469 kts | 37° |
| 2026-04-21 19:22 | 39.11724 | -76.26957 | 31373 ft | 450 kts | 36° |
| 2026-04-21 19:22 | 39.14020 | -76.24216 | 30639 ft | 451 kts | 36° |
| 2026-04-21 19:22 | 39.16332 | -76.21495 | 29996 ft | 450 kts | 35° |
| 2026-04-21 19:23 | 39.18664 | -76.18771 | 29335 ft | 455 kts | 35° |
| 2026-04-21 19:23 | 39.21019 | -76.16024 | 28722 ft | 457 kts | 36° |
| 2026-04-21 19:23 | 39.23364 | -76.13277 | 28113 ft | 453 kts | 36° |
| 2026-04-21 19:23 | 39.25678 | -76.10560 | 27518 ft | 447 kts | 36° |
| 2026-04-21 19:24 | 39.27967 | -76.07873 | 27075 ft | 440 kts | 36° |
| 2026-04-21 19:24 | 39.30210 | -76.05235 | 26708 ft | 435 kts | 36° |
| 2026-04-21 19:24 | 39.32456 | -76.02598 | 26348 ft | 439 kts | 36° |
| 2026-04-21 19:24 | 39.34723 | -75.99937 | 25985 ft | 442 kts | 36° |
| 2026-04-21 19:25 | 39.36998 | -75.97262 | 25595 ft | 441 kts | 36° |
| 2026-04-21 19:25 | 39.39255 | -75.94599 | 25215 ft | 438 kts | 36° |
| 2026-04-21 19:25 | 39.41498 | -75.91950 | 24832 ft | 435 kts | 36° |
| 2026-04-21 19:25 | 39.43727 | -75.89314 | 24475 ft | 433 kts | 36° |
| 2026-04-21 19:26 | 39.45945 | -75.86690 | 24095 ft | 431 kts | 36° |
| 2026-04-21 19:26 | 39.48152 | -75.84078 | 23685 ft | 429 kts | 36° |
| 2026-04-21 19:26 | 39.50347 | -75.81478 | 23274 ft | 426 kts | 36° |
| 2026-04-21 19:26 | 39.52528 | -75.78891 | 22887 ft | 424 kts | 36° |
| 2026-04-21 19:27 | 39.54695 | -75.76320 | 22523 ft | 421 kts | 36° |
| 2026-04-21 19:27 | 39.56848 | -75.73764 | 22155 ft | 418 kts | 36° |
| 2026-04-21 19:27 | 39.58986 | -75.71224 | 21796 ft | 416 kts | 36° |
| 2026-04-21 19:27 | 39.61110 | -75.68697 | 21444 ft | 413 kts | 36° |
| 2026-04-21 19:28 | 39.63226 | -75.66180 | 21086 ft | 411 kts | 36° |
| 2026-04-21 19:28 | 39.65327 | -75.63677 | 20736 ft | 410 kts | 36° |
| 2026-04-21 19:28 | 39.67422 | -75.61178 | 20390 ft | 408 kts | 36° |
| 2026-04-21 19:28 | 39.69507 | -75.58683 | 20003 ft | 408 kts | 36° |
| 2026-04-21 19:29 | 39.71592 | -75.56178 | 19587 ft | 408 kts | 36° |
| 2026-04-21 19:29 | 39.73671 | -75.53674 | 19174 ft | 407 kts | 36° |
| 2026-04-21 19:29 | 39.75747 | -75.51170 | 18770 ft | 406 kts | 36° |
| 2026-04-21 19:29 | 39.77806 | -75.48682 | 18323 ft | 402 kts | 36° |
| 2026-04-21 19:30 | 39.79838 | -75.46224 | 17882 ft | 397 kts | 36° |
| 2026-04-21 19:30 | 39.81841 | -75.43801 | 17399 ft | 392 kts | 36° |
| 2026-04-21 19:30 | 39.83839 | -75.41388 | 16819 ft | 391 kts | 36° |
| 2026-04-21 19:30 | 39.85825 | -75.38987 | 16380 ft | 386 kts | 36° |
| 2026-04-21 19:31 | 39.87779 | -75.36620 | 15973 ft | 382 kts | 36° |
| 2026-04-21 19:31 | 39.89684 | -75.34311 | 15590 ft | 377 kts | 36° |
| 2026-04-21 19:31 | 39.91619 | -75.31964 | 15211 ft | 373 kts | 37° |
| 2026-04-21 19:31 | 39.93495 | -75.29691 | 14843 ft | 374 kts | 37° |
| 2026-04-21 19:32 | 39.95404 | -75.27375 | 14480 ft | 376 kts | 37° |
| 2026-04-21 19:32 | 39.97319 | -75.25049 | 14092 ft | 376 kts | 37° |
| 2026-04-21 19:32 | 39.99227 | -75.22723 | 13679 ft | 375 kts | 37° |
| 2026-04-21 19:32 | 40.01131 | -75.20404 | 13244 ft | 374 kts | 37° |
| 2026-04-21 19:33 | 40.02413 | -75.18843 | 12985 ft | 372 kts | 37° |
| 2026-04-21 19:33 | 40.04910 | -75.15796 | 12475 ft | 370 kts | 37° |
| 2026-04-21 19:33 | 40.06788 | -75.13504 | 12137 ft | 367 kts | 37° |
| 2026-04-21 19:33 | 40.08635 | -75.11246 | 11765 ft | 360 kts | 37° |
| 2026-04-21 19:34 | 40.10443 | -75.09033 | 11407 ft | 353 kts | 37° |
| 2026-04-21 19:34 | 40.12215 | -75.06867 | 11044 ft | 346 kts | 37° |
| 2026-04-21 19:34 | 40.13924 | -75.04765 | 10715 ft | 324 kts | 37° |
| 2026-04-21 19:34 | 40.15490 | -75.02829 | 10432 ft | 297 kts | 36° |
| 2026-04-21 19:35 | 40.16939 | -75.01044 | 10168 ft | 280 kts | 35° |
| 2026-04-21 19:35 | 40.19722 | -74.97649 | 9650 ft | 269 kts | 36° |
| 2026-04-21 19:35 | 40.21086 | -74.95981 | 9392 ft | 268 kts | 36° |
| 2026-04-21 19:36 | 40.22445 | -74.94316 | 9146 ft | 267 kts | 36° |
| 2026-04-21 19:36 | 40.23801 | -74.92650 | 8888 ft | 268 kts | 37° |
| 2026-04-21 19:36 | 40.25159 | -74.90980 | 8656 ft | 268 kts | 37° |
| 2026-04-21 19:36 | 40.26476 | -74.89235 | 8411 ft | 270 kts | 40° |
| 2026-04-21 19:37 | 40.27755 | -74.87434 | 8166 ft | 270 kts | 41° |
| 2026-04-21 19:37 | 40.29019 | -74.85632 | 8053 ft | 266 kts | 42° |
| 2026-04-21 19:37 | 40.30272 | -74.83858 | 8012 ft | 266 kts | 41° |
| 2026-04-21 19:37 | 40.31537 | -74.82075 | 7992 ft | 269 kts | 41° |
| 2026-04-21 19:38 | 40.32815 | -74.80276 | 7993 ft | 270 kts | 41° |
| 2026-04-21 19:38 | 40.34098 | -74.78473 | 7985 ft | 271 kts | 41° |
| 2026-04-21 19:38 | 40.34951 | -74.77274 | 7990 ft | 271 kts | 41° |
| 2026-04-21 19:38 | 40.36670 | -74.74852 | 7982 ft | 271 kts | 41° |
| 2026-04-21 19:39 | 40.37950 | -74.73044 | 7977 ft | 270 kts | 41° |
| 2026-04-21 19:39 | 40.39230 | -74.71245 | 7989 ft | 269 kts | 41° |
| 2026-04-21 19:39 | 40.40501 | -74.69455 | 7895 ft | 268 kts | 41° |
| 2026-04-21 19:39 | 40.41759 | -74.67719 | 7611 ft | 261 kts | 36° |
| 2026-04-21 19:40 | 40.43338 | -74.66635 | 7074 ft | 251 kts | 8° |
| 2026-04-21 19:40 | 40.45050 | -74.66197 | 6639 ft | 249 kts | 7° |
| 2026-04-21 19:40 | 40.46169 | -74.65904 | 6609 ft | 247 kts | 7° |
| 2026-04-21 19:40 | 40.48421 | -74.65303 | 6465 ft | 253 kts | 8° |
| 2026-04-21 19:41 | 40.50163 | -74.64845 | 6340 ft | 257 kts | 8° |
| 2026-04-21 19:41 | 40.51913 | -74.64380 | 6241 ft | 256 kts | 8° |
| 2026-04-21 19:41 | 40.53657 | -74.63913 | 6148 ft | 256 kts | 8° |
| 2026-04-21 19:41 | 40.55398 | -74.63444 | 6051 ft | 254 kts | 8° |
| 2026-04-21 19:42 | 40.56568 | -74.63134 | 6023 ft | 253 kts | 8° |
| 2026-04-21 19:42 | 40.58296 | -74.62673 | 5980 ft | 255 kts | 8° |
| 2026-04-21 19:42 | 40.60036 | -74.62208 | 5986 ft | 255 kts | 8° |
| 2026-04-21 19:42 | 40.61786 | -74.61739 | 5800 ft | 261 kts | 9° |
| 2026-04-21 19:43 | 40.63542 | -74.61263 | 5605 ft | 259 kts | 9° |
| 2026-04-21 19:43 | 40.65310 | -74.60785 | 5461 ft | 254 kts | 9° |
| 2026-04-21 19:43 | 40.67027 | -74.60321 | 5339 ft | 250 kts | 9° |
| 2026-04-21 19:43 | 40.68745 | -74.59872 | 5239 ft | 253 kts | 9° |
| 2026-04-21 19:44 | 40.70486 | -74.59403 | 5154 ft | 257 kts | 9° |
| 2026-04-21 19:44 | 40.72245 | -74.58927 | 5044 ft | 259 kts | 9° |
| 2026-04-21 19:44 | 40.73987 | -74.58460 | 4910 ft | 259 kts | 9° |
| 2026-04-21 19:44 | 40.75743 | -74.57981 | 4847 ft | 257 kts | 9° |
| 2026-04-21 19:45 | 40.77496 | -74.57508 | 4748 ft | 258 kts | 9° |
| 2026-04-21 19:45 | 40.79255 | -74.57038 | 4624 ft | 259 kts | 9° |
| 2026-04-21 19:45 | 40.81015 | -74.56562 | 4520 ft | 258 kts | 9° |
| 2026-04-21 19:45 | 40.82767 | -74.56093 | 4420 ft | 255 kts | 9° |
| 2026-04-21 19:46 | 40.84399 | -74.55266 | 4302 ft | 255 kts | 36° |
| 2026-04-21 19:46 | 40.85513 | -74.53464 | 4197 ft | 256 kts | 68° |
| 2026-04-21 19:46 | 40.85853 | -74.51180 | 4146 ft | 255 kts | 91° |
| 2026-04-21 19:46 | 40.85766 | -74.48826 | 4059 ft | 258 kts | 95° |
| 2026-04-21 19:47 | 40.85644 | -74.46462 | 4016 ft | 259 kts | 95° |
| 2026-04-21 19:47 | 40.85523 | -74.44100 | 4007 ft | 257 kts | 95° |
| 2026-04-21 19:47 | 40.85400 | -74.41721 | 3772 ft | 263 kts | 95° |
| 2026-04-21 19:47 | 40.85272 | -74.39333 | 3597 ft | 257 kts | 95° |
| 2026-04-21 19:48 | 40.85157 | -74.37018 | 3546 ft | 248 kts | 95° |
| 2026-04-21 19:48 | 40.85042 | -74.34741 | 3500 ft | 252 kts | 95° |
| 2026-04-21 19:48 | 40.84924 | -74.32422 | 3487 ft | 254 kts | 95° |
| 2026-04-21 19:48 | 40.84806 | -74.30088 | 3480 ft | 254 kts | 95° |
| 2026-04-21 19:49 | 40.84692 | -74.27746 | 3265 ft | 262 kts | 95° |
| 2026-04-21 19:49 | 40.84579 | -74.25342 | 3029 ft | 259 kts | 95° |
| 2026-04-21 19:49 | 40.84465 | -74.23031 | 3007 ft | 246 kts | 95° |
| 2026-04-21 19:49 | 40.84360 | -74.20825 | 2977 ft | 235 kts | 95° |
| 2026-04-21 19:50 | 40.84250 | -74.18746 | 2987 ft | 224 kts | 96° |
| 2026-04-21 19:50 | 40.84147 | -74.16709 | 2980 ft | 222 kts | 95° |
| 2026-04-21 19:50 | 40.84046 | -74.14686 | 2993 ft | 220 kts | 95° |
| 2026-04-21 19:50 | 40.83948 | -74.12697 | 2994 ft | 214 kts | 96° |
| 2026-04-21 19:51 | 40.83684 | -74.10792 | 2938 ft | 208 kts | 120° |
| 2026-04-21 19:51 | 40.82714 | -74.09480 | 2793 ft | 202 kts | 158° |
| 2026-04-21 19:51 | 40.81406 | -74.09273 | 2568 ft | 185 kts | 193° |
| 2026-04-21 19:51 | 40.80205 | -74.09734 | 2364 ft | 177 kts | 200° |
| 2026-04-21 19:52 | 40.79050 | -74.10281 | 2107 ft | 175 kts | 203° |
| 2026-04-21 19:52 | 40.77943 | -74.10931 | 1862 ft | 172 kts | 206° |
| 2026-04-21 19:52 | 40.76896 | -74.11596 | 1642 ft | 163 kts | 206° |
| 2026-04-21 19:52 | 40.75859 | -74.12260 | 1428 ft | 165 kts | 206° |
| 2026-04-21 19:53 | 40.74864 | -74.12895 | 1182 ft | 154 kts | 206° |
| 2026-04-21 19:53 | 40.73927 | -74.13495 | 945 ft | 145 kts | 206° |
| 2026-04-21 19:53 | 40.73055 | -74.14053 | 761 ft | 137 kts | 205° |
| 2026-04-21 19:53 | 40.72186 | -74.14607 | 588 ft | 138 kts | 204° |
| 2026-04-21 19:54 | 40.71316 | -74.15173 | 354 ft | 141 kts | 204° |
| 2026-04-21 19:54 | 40.70431 | -74.15738 | 162 ft | 142 kts | 202° |
| 2026-04-21 19:54 | 40.69544 | -74.16296 | 32 ft | 139 kts | 203° |
| 2026-04-21 19:54 | 40.68763 | -74.16786 | 30 ft | 104 kts | 205° |
| 2026-04-21 19:55 | 40.68359 | -74.17057 | 27 ft | 34 kts | 216° |
| 2026-04-21 19:55 | 40.68255 | -74.17200 | 30 ft | 7 kts | 232° |
| 2026-04-21 19:55 | 40.68231 | -74.17244 | 29 ft | 5 kts | 234° |
| 2026-04-21 19:55 | 40.68208 | -74.17285 | 30 ft | 6 kts | 234° |
| 2026-04-21 19:56 | 40.68184 | -74.17331 | 25 ft | 6 kts | 235° |
| 2026-04-21 19:56 | 40.68157 | -74.17380 | 28 ft | 7 kts | 228° |
| 2026-04-21 19:56 | 40.68115 | -74.17419 | 28 ft | 8 kts | 206° |
| 2026-04-21 19:56 | 40.68065 | -74.17450 | 28 ft | 8 kts | 206° |
| 2026-04-21 19:57 | 40.68015 | -74.17482 | 29 ft | 8 kts | 206° |
| 2026-04-21 19:57 | 40.67985 | -74.17501 | 27 ft | 2 kts | 205° |
| 2026-04-21 19:57 | 40.67978 | -74.17505 | 28 ft | 0 kts | 206° |
| 2026-04-21 19:57 | 40.67969 | -74.17515 | 28 ft | 6 kts | 220° |
| 2026-04-21 19:58 | 40.67966 | -74.17574 | 28 ft | 8 kts | 285° |
| 2026-04-21 19:58 | 40.67989 | -74.17645 | 29 ft | 9 kts | 295° |
| 2026-04-21 19:58 | 40.68017 | -74.17722 | 31 ft | 9 kts | 296° |
| 2026-04-21 19:58 | 40.68024 | -74.17741 | 31 ft | 4 kts | 295° |
| 2026-04-21 19:59 | 40.68028 | -74.17752 | 28 ft | 0 kts | 295° |
| 2026-04-21 19:59 | 40.68029 | -74.17785 | 31 ft | 6 kts | 255° |
| 2026-04-21 19:59 | 40.67997 | -74.17816 | 31 ft | 6 kts | 206° |
| 2026-04-21 19:59 | 40.67948 | -74.17847 | 26 ft | 12 kts | 206° |
| 2026-04-21 20:00 | 40.67884 | -74.17888 | 27 ft | 9 kts | 206° |
| 2026-04-21 20:00 | 40.67826 | -74.17925 | 27 ft | 9 kts | 205° |
| 2026-04-21 20:00 | 40.67767 | -74.17961 | 26 ft | 9 kts | 205° |
| 2026-04-21 20:00 | 40.67709 | -74.17997 | 26 ft | 9 kts | 205° |
| 2026-04-21 20:01 | 40.67656 | -74.18030 | 27 ft | 7 kts | 205° |
| 2026-04-21 20:01 | 40.67636 | -74.18083 | 27 ft | 7 kts | 278° |
| 2026-04-21 20:01 | 40.67668 | -74.18133 | 27 ft | 7 kts | 316° |
| 2026-04-21 20:01 | 40.67699 | -74.18188 | 27 ft | 8 kts | 295° |
| 2026-04-21 20:02 | 40.67714 | -74.18238 | 26 ft | 5 kts | 291° |
| 2026-04-21 20:02 | 40.67699 | -74.18270 | 26 ft | 5 kts | 217° |
| 2026-04-21 20:02 | 40.67679 | -74.18283 | 26 ft | 3 kts | 205° |
| 2026-04-21 20:02 | 40.67666 | -74.18292 | 26 ft | 2 kts | 206° |
| 2026-04-21 20:03 | 40.67660 | -74.18295 | 26 ft | 1 kts | 206° |
| 2026-04-21 20:03 | 40.67660 | -74.18296 | 26 ft | 0 kts | 206° |
| 2026-04-21 20:09 | 40.67660 | -74.18295 | 26 ft | 0 kts | 206° |